Time;durP1;ratioP1;P1;durP2;ratioP2;P2;SDS_P1;SDS_P2;PMS_P1;PMS_P2;Temp;Humidity;BMP_temperature;BMP_pressure;BME280_temperature;BME280_humidity;BME280_pressure;Samples;Min_cycle;Max_cycle;Signal;HPM_P1;HPM_P2
2022/09/03 00:00:22;;;;;;;3.17;1.10;;;15.40;96.80;;;;;;5156099;27;20083;-86
2022/09/03 00:03:30;;;;;;;3.58;1.00;;;15.40;97.00;;;;;;5140234;27;20041;-83
2022/09/03 00:06:37;;;;;;;2.15;1.10;;;15.30;84.80;;;;;;5133186;27;20402;-83
2022/09/03 00:09:26;;;;;;;6.15;1.27;;;15.30;85.30;;;;;;5133899;27;20164;-84
2022/09/03 00:12:42;;;;;;;4.25;1.00;;;15.20;85.80;;;;;;5135411;27;20520;-85
2022/09/03 00:15:32;;;;;;;4.95;1.13;;;15.20;85.90;;;;;;5127098;27;20099;-86
2022/09/03 00:18:19;;;;;;;5.47;1.42;;;;;;;;;;5131798;27;20139;-86
2022/09/03 00:21:08;;;;;;;4.60;0.90;;;15.10;86.50;;;;;;5138174;27;20037;-85
2022/09/03 00:23:53;;;;;;;3.40;1.33;;;;;;;;;;5126931;27;20062;-87
2022/09/03 00:26:42;;;;;;;2.70;1.13;;;14.80;96.60;;;;;;5139408;27;20155;-84
2022/09/03 00:29:38;;;;;;;2.50;1.10;;;15.00;87.80;;;;;;5123296;27;20038;-85
2022/09/03 00:32:46;;;;;;;5.82;1.10;;;15.00;98.30;;;;;;5148219;27;20065;-85
2022/09/03 00:35:36;;;;;;;4.82;1.30;;;14.90;88.60;;;;;;5139730;27;20049;-85
2022/09/03 00:38:21;;;;;;;2.63;1.05;;;;;;;;;;5136745;27;20038;-85
2022/09/03 00:41:23;;;;;;;2.67;1.17;;;14.80;89.80;;;;;;5119542;27;20502;-85
2022/09/03 00:44:35;;;;;;;5.05;1.05;;;14.60;98.60;;;;;;5144326;27;20038;-85
2022/09/03 00:47:20;;;;;;;2.75;1.10;;;;;;;;;;5134873;27;20042;-85
2022/09/03 00:50:23;;;;;;;6.80;1.45;;;14.60;90.20;;;;;;5135652;27;20045;-84
2022/09/03 00:53:17;;;;;;;3.22;1.15;;;;;;;;;;5127998;27;20495;-86
2022/09/03 00:56:01;;;;;;;2.70;1.25;;;;;;;;;;5133804;27;20121;-85
2022/09/03 00:59:00;;;;;;;2.95;1.00;;;14.60;99.10;;;;;;5132619;27;20459;-85
2022/09/03 01:02:08;;;;;;;4.10;1.10;;;14.50;91.00;;;;;;5118142;27;20398;-85
2022/09/03 01:04:53;;;;;;;4.05;1.10;;;;;;;;;;5133736;27;20038;-85
2022/09/03 01:08:17;;;;;;;3.42;1.15;;;14.30;99.90;;;;;;5138223;27;20054;-82
2022/09/03 01:11:30;;;;;;;3.35;1.20;;;15.20;99.90;;;;;;5118661;27;20612;-84
2022/09/03 01:15:07;;;;;;;4.23;1.27;;;14.40;92.00;;;;;;5124414;27;20225;-85
2022/09/03 01:18:03;;;;;;;4.72;1.10;;;14.30;91.80;;;;;;5072045;27;20274;-85
2022/09/03 01:21:25;;;;;;;3.15;1.20;;;14.30;92.00;;;;;;5118083;27;20079;-85
2022/09/03 01:24:22;;;;;;;5.63;1.52;;;14.30;92.20;;;;;;5133419;27;20497;-85
2022/09/03 01:27:46;;;;;;;1.88;1.00;;;14.20;92.40;;;;;;5138582;27;20091;-85
2022/09/03 01:30:37;;;;;;;2.80;1.23;;;14.40;99.90;;;;;;5127524;27;20532;-83
2022/09/03 01:33:34;;;;;;;4.75;1.20;;;14.00;99.90;;;;;;5118221;27;20075;-84
2022/09/03 01:36:19;;;;;;;2.85;1.00;;;;;;;;;;5117278;27;20095;-84
2022/09/03 01:39:06;;;;;;;3.72;1.10;;;14.30;99.90;;;;;;5133231;27;20063;-83
2022/09/03 01:42:17;;;;;;;4.93;1.10;;;14.00;99.90;;;;;;5132947;27;20088;-83
2022/09/03 01:45:31;;;;;;;3.08;1.35;;;14.00;93.40;;;;;;5131868;27;20038;-84
2022/09/03 01:48:40;;;;;;;1.63;0.88;;;14.00;99.90;;;;;;5133290;27;20037;-84
2022/09/03 01:51:28;;;;;;;2.13;1.15;;;14.00;93.70;;;;;;5138489;27;20042;-82
2022/09/03 01:54:16;;;;;;;3.67;0.95;;;;;;;;;;5136660;27;20072;-85
2022/09/03 01:57:13;;;;;;;4.13;1.10;;;14.00;93.90;;;;;;5128718;27;20147;-85
2022/09/03 02:00:03;;;;;;;9.02;1.10;;;;;;;;;;5130236;27;20089;-87
2022/09/03 02:02:50;;;;;;;2.40;1.00;;;13.90;94.20;;;;;;5117376;28;20031;-88
2022/09/03 02:05:34;;;;;;;1.98;0.98;;;13.90;99.90;;;;;;5147606;27;20114;-85
2022/09/03 02:08:19;;;;;;;3.13;1.17;;;14.00;99.90;;;;;;5130965;27;20099;-84
2022/09/03 02:11:07;;;;;;;2.88;1.48;;;14.20;99.90;;;;;;5104341;28;20033;-85
2022/09/03 02:13:56;;;;;;;3.20;0.98;;;14.00;94.60;;;;;;5132809;27;20034;-84
2022/09/03 02:16:40;;;;;;;8.02;1.33;;;;;;;;;;5132962;27;20152;-84
2022/09/03 02:19:28;;;;;;;2.38;1.10;;;13.90;99.90;;;;;;5117683;28;20043;-83
2022/09/03 02:22:13;;;;;;;3.13;1.00;;;;;;;;;;5116702;27;20073;-83
2022/09/03 02:24:58;;;;;;;3.50;1.00;;;;;;;;;;5116824;28;20432;-85
2022/09/03 02:27:44;;;;;;;6.20;1.10;;;13.90;95.50;;;;;;5103457;27;20035;-84
2022/09/03 02:30:28;;;;;;;2.38;0.98;;;13.80;99.90;;;;;;5132916;27;20403;-83
2022/09/03 02:33:14;;;;;;;3.83;1.20;;;13.50;99.90;;;;;;5124580;27;20033;-84
2022/09/03 02:35:58;;;;;;;3.97;1.30;;;;;;;;;;5136663;27;20142;-84
2022/09/03 02:38:43;;;;;;;3.78;1.20;;;14.00;99.90;;;;;;5128184;27;20038;-83
2022/09/03 02:41:29;;;;;;;1.92;1.00;;;;;;;;;;5118031;27;20080;-83
2022/09/03 02:44:30;;;;;;;3.42;1.20;;;14.10;99.90;;;;;;5132255;27;20054;-83
2022/09/03 02:47:15;;;;;;;4.97;1.10;;;14.70;99.90;;;;;;5116740;27;20125;-84
2022/09/03 02:49:59;;;;;;;3.70;1.20;;;;;;;;;;5120371;27;20043;-84
2022/09/03 02:52:43;;;;;;;4.18;1.00;;;14.10;99.90;;;;;;5121183;27;20038;-83
2022/09/03 02:55:28;;;;;;;3.67;1.10;;;;;;;;;;5136649;27;20038;-83
2022/09/03 02:58:13;;;;;;;4.90;1.67;;;;;;;;;;5135936;27;20086;-83
2022/09/03 03:00:58;;;;;;;2.42;1.10;;;14.30;99.90;;;;;;5146905;27;20034;-84
2022/09/03 03:03:42;;;;;;;2.03;1.10;;;14.10;99.90;;;;;;5137248;27;20070;-83
2022/09/03 03:06:26;;;;;;;2.50;1.00;;;14.30;99.90;;;;;;5136167;27;20517;-83
2022/09/03 03:09:30;;;;;;;2.22;1.02;;;14.30;95.80;;;;;;5135939;27;20042;-83
2022/09/03 03:12:16;;;;;;;5.63;1.10;;;;;;;;;;5135665;27;20038;-83
2022/09/03 03:15:01;;;;;;;4.60;1.10;;;;;;;;;;5135677;27;20042;-84
2022/09/03 03:17:45;;;;;;;1.50;0.82;;;;;;;;;;5136337;27;20146;-83
2022/09/03 03:20:29;;;;;;;2.95;1.20;;;14.40;99.90;;;;;;5123979;27;20060;-83
2022/09/03 03:23:14;;;;;;;2.50;1.17;;;14.50;99.90;;;;;;5128418;27;20142;-84
2022/09/03 03:26:02;;;;;;;4.18;1.20;;;;;;;;;;5142462;27;20521;-88
2022/09/03 03:28:48;;;;;;;5.10;0.90;;;14.40;95.80;;;;;;5124869;27;20046;-83
2022/09/03 03:31:33;;;;;;;4.88;1.10;;;;;;;;;;5136041;27;20034;-83
2022/09/03 03:34:17;;;;;;;2.20;1.08;;;14.40;99.90;;;;;;5135367;27;20057;-83
2022/09/03 03:37:01;;;;;;;2.72;0.95;;;14.50;99.90;;;;;;5119900;27;20119;-85
2022/09/03 03:39:45;;;;;;;4.47;1.13;;;;;;;;;;5135860;27;20539;-83
2022/09/03 03:42:32;;;;;;;3.40;1.10;;;14.40;95.90;;;;;;5120250;27;20070;-83
2022/09/03 03:45:17;;;;;;;3.97;1.13;;;;;;;;;;5119596;27;20068;-83
2022/09/03 03:48:02;;;;;;;3.72;1.25;;;;;;;;;;5135363;27;20100;-88
2022/09/03 03:50:47;;;;;;;4.35;1.00;;;;;;;;;;5119683;27;20037;-84
2022/09/03 03:53:39;;;;;;;3.05;1.00;;;14.10;99.90;;;;;;5135538;27;20038;-84
2022/09/03 03:56:25;;;;;;;2.80;1.00;;;14.30;99.90;;;;;;5149368;27;20080;-83
2022/09/03 03:59:09;;;;;;;2.60;1.10;;;13.90;99.90;;;;;;5134565;27;20042;-84
2022/09/03 04:01:54;;;;;;;7.18;1.40;;;;;;;;;;5105460;27;20041;-85
2022/09/03 04:04:39;;;;;;;4.40;1.10;;;;;;;;;;5135439;27;20034;-83
2022/09/03 04:07:24;;;;;;;3.90;1.10;;;14.40;99.90;;;;;;5134874;27;20073;-84
2022/09/03 04:10:08;;;;;;;7.22;1.75;;;14.30;98.80;;;;;;5134707;27;20115;-84
2022/09/03 04:12:55;;;;;;;4.45;1.23;;;15.00;99.90;;;;;;5119791;27;20456;-83
2022/09/03 04:15:41;;;;;;;2.10;1.02;;;14.20;99.90;;;;;;5134834;27;20091;-84
2022/09/03 04:18:25;;;;;;;6.88;1.80;;;;;;;;;;5119214;27;20042;-83
2022/09/03 04:21:12;;;;;;;4.45;1.20;;;14.20;96.30;;;;;;5134565;27;20039;-84
2022/09/03 04:23:57;;;;;;;5.93;1.27;;;14.30;99.90;;;;;;5134681;27;20049;-84
2022/09/03 04:26:42;;;;;;;2.58;1.10;;;;;;;;;;5119372;27;20092;-84
2022/09/03 04:29:30;;;;;;;2.63;1.10;;;;;;;;;;5118664;27;20041;-84
2022/09/03 04:35:18;;;;;;;3.60;1.30;;;;;;;;;;5134264;27;20073;-85
2022/09/03 04:38:03;;;;;;;6.38;1.50;;;;;;;;;;5141524;27;20593;-82
2022/09/03 04:40:53;;;;;;;2.10;1.00;;;14.10;99.90;;;;;;5123785;27;20429;-81
2022/09/03 04:43:37;;;;;;;3.28;1.20;;;14.50;99.90;;;;;;5134660;27;20050;-82
2022/09/03 04:46:25;;;;;;;6.18;1.20;;;14.00;99.90;;;;;;5133795;27;20080;-82
2022/09/03 04:49:10;;;;;;;2.17;1.15;;;;;;;;;;5133737;27;20088;-88
2022/09/03 04:51:54;;;;;;;4.28;1.83;;;13.90;99.90;;;;;;5130206;27;20045;-81
2022/09/03 04:54:38;;;;;;;2.55;1.40;;;14.10;99.90;;;;;;5118766;27;20035;-82
2022/09/03 04:57:23;;;;;;;2.53;1.40;;;14.10;99.90;;;;;;5115850;27;20138;-83
2022/09/03 05:00:10;;;;;;;2.60;1.30;;;14.10;99.90;;;;;;5137858;27;20402;-82
2022/09/03 05:02:55;;;;;;;3.53;1.30;;;;;;;;;;5126609;27;20122;-85
2022/09/03 05:05:39;;;;;;;3.65;1.23;;;14.60;99.90;;;;;;5118618;27;20119;-86
2022/09/03 05:08:24;;;;;;;2.78;1.67;;;14.10;99.90;;;;;;5111958;28;20067;-82
2022/09/03 05:11:09;;;;;;;2.85;1.38;;;;;;;;;;5112992;28;20100;-82
2022/09/03 05:13:56;;;;;;;4.60;1.30;;;14.00;98.10;;;;;;5112122;28;20034;-84
2022/09/03 05:16:41;;;;;;;5.70;1.50;;;;;;;;;;5113494;28;20104;-83
2022/09/03 05:19:25;;;;;;;3.85;1.33;;;13.90;99.90;;;;;;5112004;28;20069;-85
2022/09/03 05:22:10;;;;;;;2.67;1.35;;;;;;;;;;5128051;27;20096;-86
2022/09/03 05:24:55;;;;;;;4.10;1.73;;;14.30;99.90;;;;;;5112550;28;20038;-85
2022/09/03 05:27:39;;;;;;;2.63;1.40;;;;;;;;;;5119865;27;20042;-84
2022/09/03 05:30:25;;;;;;;2.40;1.40;;;;;;;;;;5119064;27;20039;-84
2022/09/03 05:33:09;;;;;;;2.40;1.50;;;13.80;99.90;;;;;;5127131;27;20070;-85
2022/09/03 05:35:59;;;;;;;3.50;1.60;;;13.90;99.90;;;;;;5118075;27;20465;-84
2022/09/03 05:38:44;;;;;;;2.78;1.48;;;14.00;99.90;;;;;;5118066;27;20404;-85
2022/09/03 05:41:28;;;;;;;5.78;2.13;;;13.90;99.90;;;;;;5126189;27;20054;-85
2022/09/03 05:44:13;;;;;;;5.32;1.85;;;14.20;99.90;;;;;;5120256;27;20037;-86
2022/09/03 05:46:58;;;;;;;4.43;1.80;;;;;;;;;;5113030;27;20073;-86
2022/09/03 05:49:42;;;;;;;5.28;1.77;;;14.20;99.90;;;;;;5117546;27;20088;-84
2022/09/03 05:52:27;;;;;;;4.18;1.70;;;15.00;99.90;;;;;;5117347;28;20168;-85
2022/09/03 05:55:11;;;;;;;3.65;1.50;;;14.10;99.90;;;;;;5113428;27;20114;-85
2022/09/03 05:57:55;;;;;;;5.93;2.22;;;14.20;99.90;;;;;;5115153;27;20046;-85
2022/09/03 06:00:39;;;;;;;4.00;1.63;;;;;;;;;;5124777;27;20509;-85
2022/09/03 06:03:24;;;;;;;4.18;1.38;;;;;;;;;;5111464;28;20491;-85
2022/09/03 06:06:09;;;;;;;4.30;2.00;;;14.20;99.90;;;;;;5112981;28;20043;-84
2022/09/03 06:08:56;;;;;;;2.92;1.83;;;14.20;99.90;;;;;;5138996;27;20168;-82
2022/09/03 06:11:41;;;;;;;4.90;1.58;;;;;;;;;;5141251;27;20030;-85
2022/09/03 06:14:26;;;;;;;2.75;1.70;;;;;;;;;;5117070;27;20031;-85
2022/09/03 06:17:11;;;;;;;2.75;1.60;;;14.20;99.90;;;;;;5140731;27;20115;-84
2022/09/03 06:19:56;;;;;;;4.38;1.70;;;;;;;;;;5142112;27;20034;-84
2022/09/03 06:22:40;;;;;;;4.03;1.95;;;14.40;99.90;;;;;;5151647;27;20249;-84
2022/09/03 06:25:24;;;;;;;3.47;1.98;;;14.60;99.90;;;;;;5144200;27;20402;-83
2022/09/03 06:28:08;;;;;;;3.78;1.70;;;;;;;;;;5144512;27;20543;-84
2022/09/03 06:30:56;;;;;;;3.28;1.85;;;14.80;99.90;;;;;;5142359;27;20037;-84
2022/09/03 06:33:41;;;;;;;3.55;1.80;;;14.80;99.90;;;;;;5142956;27;20069;-85
2022/09/03 06:36:25;;;;;;;4.43;1.77;;;15.10;99.90;;;;;;5136391;27;20582;-83
2022/09/03 06:39:09;;;;;;;3.60;1.98;;;;;;;;;;5139974;27;20117;-83
2022/09/03 06:41:54;;;;;;;4.53;1.73;;;;;;;;;;5130214;27;20126;-81
2022/09/03 06:44:38;;;;;;;4.88;1.90;;;;;;;;;;5121156;27;20114;-85
2022/09/03 06:47:23;;;;;;;4.28;1.88;;;;;;;;;;5142848;27;20395;-91
2022/09/03 06:50:07;;;;;;;3.58;1.60;;;15.10;99.90;;;;;;5130140;27;20050;-88
2022/09/03 06:52:56;;;;;;;6.40;2.13;;;15.30;99.90;;;;;;5130817;27;20034;-89
2022/09/03 06:55:42;;;;;;;3.53;2.10;;;15.40;99.90;;;;;;5133982;27;20066;-85
2022/09/03 06:58:31;;;;;;;3.35;1.65;;;15.40;98.80;;;;;;5138357;27;20543;-90
2022/09/03 07:01:18;;;;;;;4.43;1.80;;;15.50;99.90;;;;;;5156704;27;20080;-82
2022/09/03 07:04:04;;;;;;;4.22;1.60;;;15.60;99.90;;;;;;5149420;27;20038;-81
2022/09/03 07:06:48;;;;;;;5.43;1.92;;;15.80;99.90;;;;;;5136207;27;20095;-83
2022/09/03 07:09:37;;;;;;;4.53;1.90;;;15.90;99.90;;;;;;5121297;27;20042;-86
2022/09/03 07:12:21;;;;;;;2.67;1.60;;;16.00;99.90;;;;;;5137397;27;20509;-88
2022/09/03 07:15:05;;;;;;;2.63;1.70;;;15.90;99.90;;;;;;5121429;27;20132;-86
2022/09/03 07:17:49;;;;;;;8.18;1.92;;;16.60;99.90;;;;;;5130851;27;20049;-86
2022/09/03 07:20:34;;;;;;;3.53;1.63;;;;;;;;;;5127655;27;20122;-86
2022/09/03 07:23:18;;;;;;;3.42;2.00;;;18.00;99.90;;;;;;5127584;27;20118;-88
2022/09/03 07:26:04;;;;;;;3.72;1.30;;;;;;;;;;5142313;27;20045;-88
2022/09/03 07:28:49;;;;;;;4.28;1.50;;;20.10;99.90;;;;;;5155293;27;20034;-86
2022/09/03 07:31:39;;;;;;;3.60;1.50;;;21.30;88.80;;;;;;5106719;27;20042;-89
2022/09/03 07:34:25;;;;;;;3.63;1.48;;;;;;;;;;5119969;27;20100;-85
2022/09/03 07:37:10;;;;;;;4.47;1.60;;;;;;;;;;5120067;27;20046;-85
2022/09/03 07:39:54;;;;;;;4.60;1.45;;;24.00;96.70;;;;;;5143894;27;20046;-88
2022/09/03 07:42:39;;;;;;;4.57;1.67;;;23.00;92.90;;;;;;5145955;27;20034;-87
2022/09/03 07:45:23;;;;;;;4.72;1.55;;;23.40;91.40;;;;;;5137768;27;20069;-87
2022/09/03 07:48:07;;;;;;;3.08;1.45;;;22.30;92.30;;;;;;5112608;27;20045;-87
2022/09/03 07:51:00;;;;;;;4.13;1.20;;;22.80;75.40;;;;;;5133077;27;20143;-83
2022/09/03 07:53:45;;;;;;;3.45;1.50;;;22.80;74.70;;;;;;5137628;27;20038;-87
2022/09/03 07:56:30;;;;;;;4.10;1.33;;;23.10;91.70;;;;;;5126688;27;20501;-85
2022/09/03 07:59:15;;;;;;;5.10;1.40;;;;;;;;;;5115372;27;20050;-88
2022/09/03 08:01:59;;;;;;;5.18;1.20;;;;;;;;;;5120817;27;20038;-88
2022/09/03 08:04:44;;;;;;;4.55;1.80;;;22.80;93.20;;;;;;5136361;27;20433;-88
2022/09/03 08:07:29;;;;;;;3.03;1.20;;;;;;;;;;5136868;27;20058;-83
2022/09/03 08:10:15;;;;;;;3.58;1.50;;;22.20;92.50;;;;;;5106619;27;20046;-89
2022/09/03 08:13:00;;;;;;;3.75;1.25;;;;;;;;;;5136590;27;20088;-85
2022/09/03 08:15:53;;;;;;;7.65;1.33;;;21.80;75.30;;;;;;5136597;27;20386;-88
2022/09/03 08:18:38;;;;;;;3.45;1.20;;;;;;;;;;5148610;27;20492;-86
2022/09/03 08:21:23;;;;;;;4.30;1.52;;;21.90;74.30;;;;;;5137820;27;20103;-83
2022/09/03 08:24:08;;;;;;;5.18;1.45;;;;;;;;;;5139763;27;20075;-84
2022/09/03 08:26:53;;;;;;;4.38;1.50;;;22.40;93.50;;;;;;5153232;27;20040;-84
2022/09/03 08:29:37;;;;;;;7.18;2.17;;;;;;;;;;5116641;27;20098;-83
2022/09/03 08:32:21;;;;;;;3.88;1.30;;;21.50;91.30;;;;;;5134624;27;20398;-85
2022/09/03 08:35:08;;;;;;;14.95;3.45;;;;;;;;;;5124814;27;20048;-84
2022/09/03 08:37:52;;;;;;;3.83;1.40;;;;;;;;;;5119076;27;20038;-84
2022/09/03 08:40:37;;;;;;;5.65;1.60;;;;;;;;;;5119034;27;20046;-91
2022/09/03 08:43:22;;;;;;;3.85;1.42;;;;;;;;;;5132327;27;20037;-87
2022/09/03 08:46:08;;;;;;;6.18;1.27;;;22.60;72.00;;;;;;5131521;27;20183;-84
2022/09/03 08:48:54;;;;;;;3.70;1.30;;;22.80;70.80;;;;;;5118718;27;20093;-86
2022/09/03 08:51:40;;;;;;;8.93;1.75;;;22.90;70.00;;;;;;5134666;27;20057;-85
2022/09/03 08:54:28;;;;;;;3.53;1.00;;;23.10;69.70;;;;;;5104266;27;20038;-84
2022/09/03 08:57:15;;;;;;;10.02;2.30;;;23.30;69.00;;;;;;5134235;27;20041;-85
2022/09/03 09:00:00;;;;;;;6.35;1.52;;;;;;;;;;5120629;27;20155;-86
2022/09/03 09:03:04;;;;;;;4.63;1.27;;;23.40;68.00;;;;;;5127639;27;20034;-84
2022/09/03 09:05:58;;;;;;;4.38;1.15;;;23.50;67.70;;;;;;5134143;27;20030;-84
2022/09/03 09:09:02;;;;;;;;;;;23.60;67.30;;;;;;5118746;27;20042;-84
2022/09/03 09:11:53;;;;;;;4.72;1.08;;;;;;;;;;5133680;27;19926;-85
2022/09/03 09:14:56;;;;;;;3.25;1.30;;;;;;;;;;5118681;27;20088;-84
2022/09/03 09:18:21;;;;;;;5.65;1.13;;;24.10;66.50;;;;;;5118616;27;20060;-85
2022/09/03 09:21:16;;;;;;;4.65;1.40;;;24.30;65.80;;;;;;5133898;27;20041;-84
2022/09/03 09:24:05;;;;;;;5.05;1.10;;;24.30;64.30;;;;;;5133581;27;20034;-87
2022/09/03 09:26:58;;;;;;;3.83;1.20;;;24.20;64.70;;;;;;5133833;27;20038;-86
2022/09/03 09:29:47;;;;;;;4.70;1.20;;;24.30;64.20;;;;;;5134124;27;20110;-85
2022/09/03 09:32:33;;;;;;;2.17;1.00;;;;;;;;;;5118197;27;20080;-87
2022/09/03 09:35:18;;;;;;;5.13;1.30;;;;;;;;;;5118581;27;20167;-86
2022/09/03 09:38:03;;;;;;;3.45;1.30;;;;;;;;;;5133383;27;20073;-85
2022/09/03 09:40:48;;;;;;;4.35;1.40;;;;;;;;;;5117728;27;20047;-85
2022/09/03 09:43:32;;;;;;;3.83;1.15;;;;;;;;;;5115095;27;20084;-85
2022/09/03 09:46:21;;;;;;;3.38;1.10;;;24.70;61.90;;;;;;5104258;27;20045;-85
2022/09/03 09:49:36;;;;;;;4.03;1.00;;;24.70;60.50;;;;;;5133896;27;20297;-85
2022/09/03 09:52:24;;;;;;;5.18;1.65;;;;;;;;;;5140271;27;20050;-84
2022/09/03 09:55:14;;;;;;;8.68;1.30;;;24.60;60.70;;;;;;5112582;27;20106;-86
2022/09/03 09:58:10;;;;;;;6.20;1.30;;;;;;;;;;5119299;27;20070;-85
2022/09/03 10:01:13;;;;;;;3.03;1.00;;;24.90;60.40;;;;;;5128027;27;20042;-85
2022/09/03 10:04:00;;;;;;;2.17;1.00;;;25.10;60.20;;;;;;5130521;27;20042;-86
2022/09/03 10:06:54;;;;;;;5.03;1.30;;;;;;;;;;5133334;27;20080;-85
2022/09/03 10:09:40;;;;;;;5.40;1.42;;;;;;;;;;5117548;27;20060;-84
2022/09/03 10:12:30;;;;;;;2.90;0.93;;;25.50;59.40;;;;;;5131506;28;20039;-86
2022/09/03 10:15:23;;;;;;;3.60;1.10;;;;;;;;;;5133387;27;20382;-87
2022/09/03 10:18:42;;;;;;;3.63;1.02;;;25.60;57.90;;;;;;5117421;28;20046;-87
2022/09/03 10:21:48;;;;;;;3.47;1.13;;;25.90;57.60;;;;;;5122027;27;20121;-85
2022/09/03 10:24:47;;;;;;;2.47;1.38;;;;;;;;;;5117732;28;20039;-87
2022/09/03 10:27:32;;;;;;;3.67;1.38;;;;;;;;;;5133063;27;20038;-86
2022/09/03 10:30:17;;;;;;;6.68;1.10;;;;;;;;;;5118042;28;20043;-87
2022/09/03 10:33:18;;;;;;;4.72;1.25;;;26.30;55.30;;;;;;5132748;27;20482;-87
2022/09/03 10:36:09;;;;;;;5.07;1.23;;;;;;;;;;5132903;27;20072;-87
2022/09/03 10:39:26;;;;;;;3.83;1.20;;;;;;;;;;5117168;27;20370;-87
2022/09/03 10:42:36;;;;;;;3.75;1.27;;;;;;;;;;5104124;27;20493;-87
2022/09/03 10:45:38;;;;;;;4.10;1.05;;;;;;;;;;5133230;27;20126;-85
2022/09/03 10:48:26;;;;;;;2.75;1.20;;;;;;;;;;5133408;27;20042;-85
2022/09/03 10:51:22;;;;;;;5.35;1.13;;;27.00;53.80;;;;;;5132549;27;20033;-86
2022/09/03 10:54:25;;;;;;;2.67;1.02;;;27.10;52.40;;;;;;5117012;27;20116;-85
2022/09/03 10:57:19;;;;;;;6.95;0.93;;;;;;;;;;5132507;27;20510;-85
2022/09/03 11:00:09;;;;;;;3.33;1.15;;;;;;;;;;5135653;27;20061;-86
2022/09/03 11:03:11;;;;;;;3.17;1.00;;;27.40;51.00;;;;;;5125243;28;20038;-84
2022/09/03 11:06:17;;;;;;;2.92;0.93;;;27.40;50.40;;;;;;5126927;27;20030;-89
2022/09/03 11:09:15;;;;;;;2.55;1.05;;;27.30;50.60;;;;;;5146950;27;20058;-87
2022/09/03 11:12:04;;;;;;;1.70;0.98;;;27.40;50.70;;;;;;5136345;27;20499;-87
2022/09/03 11:15:12;;;;;;;3.88;1.10;;;27.50;49.60;;;;;;5136526;27;20493;-87
2022/09/03 11:18:26;;;;;;;5.30;1.00;;;27.60;48.20;;;;;;5116124;27;20107;-88
2022/09/03 11:21:11;;;;;;;;;;;27.50;48.30;;;;;;5130508;27;20534;-87
2022/09/03 11:24:32;;;;;;;3.10;0.90;;;27.50;48.60;;;;;;5123401;27;20071;-85
2022/09/03 11:27:30;;;;;;;5.53;1.00;;;27.00;72.40;;;;;;5036025;28;20112;-84
2022/09/03 11:30:24;;;;;;;4.68;1.10;;;27.40;48.10;;;;;;5121722;27;20080;-87
2022/09/03 11:33:11;;;;;;;3.03;1.20;;;26.70;67.10;;;;;;5136574;27;20119;-86
2022/09/03 11:35:59;;;;;;;4.03;1.13;;;27.50;47.50;;;;;;5120922;27;20494;-86
2022/09/03 11:38:44;;;;;;;3.17;1.05;;;;;;;;;;5120346;27;20094;-84
2022/09/03 11:41:37;;;;;;;4.68;1.00;;;27.60;46.80;;;;;;5133223;27;20075;-88
2022/09/03 11:44:22;;;;;;;2.38;1.00;;;27.20;63.20;;;;;;5135609;27;20114;-85
2022/09/03 11:47:16;;;;;;;2.40;0.95;;;27.60;68.20;;;;;;5120271;27;20054;-87
2022/09/03 11:50:19;;;;;;;5.20;1.15;;;27.60;45.70;;;;;;5136112;27;20473;-84
2022/09/03 11:53:15;;;;;;;5.18;1.05;;;27.30;63.30;;;;;;5135458;27;20101;-84
2022/09/03 11:56:06;;;;;;;4.82;1.00;;;27.70;45.80;;;;;;5135645;27;20042;-85
2022/09/03 11:59:15;;;;;;;6.20;1.10;;;28.30;63.40;;;;;;5120931;27;20050;-86
2022/09/03 12:02:12;;;;;;;5.18;1.90;;;27.90;68.60;;;;;;5150226;27;20050;-85
2022/09/03 12:05:04;;;;;;;4.90;2.00;;;28.10;63.20;;;;;;5135406;27;20038;-86
2022/09/03 12:08:07;;;;;;;3.90;1.17;;;28.50;45.70;;;;;;5135551;27;20550;-86
2022/09/03 12:11:08;;;;;;;2.92;0.98;;;28.10;44.50;;;;;;5135606;27;20034;-85
2022/09/03 12:14:04;;;;;;;2.83;1.00;;;27.90;62.70;;;;;;5135621;27;20111;-87
2022/09/03 12:16:57;;;;;;;3.65;0.90;;;28.30;44.60;;;;;;5119855;27;20391;-87
2022/09/03 12:19:46;;;;;;;3.25;1.05;;;;;;;;;;5119496;27;20046;-86
2022/09/03 12:22:37;;;;;;;2.65;1.05;;;28.20;44.20;;;;;;5119452;27;20072;-85
2022/09/03 12:25:22;;;;;;;2.92;0.93;;;;;;;;;;5136186;27;20547;-87
2022/09/03 12:28:11;;;;;;;2.70;1.00;;;28.20;43.90;;;;;;5145765;27;20046;-92
2022/09/03 12:31:13;;;;;;;2.58;0.75;;;28.20;44.40;;;;;;5119393;27;20502;-85
2022/09/03 12:34:11;;;;;;;3.38;1.23;;;28.30;43.90;;;;;;5119282;27;20452;-87
2022/09/03 12:36:56;;;;;;;6.35;1.33;;;;;;;;;;5119571;27;20038;-85
2022/09/03 12:39:50;;;;;;;3.90;1.17;;;28.20;44.00;;;;;;5119664;27;20079;-86
2022/09/03 12:42:34;;;;;;;2.20;1.00;;;;;;;;;;5149298;27;20029;-87
2022/09/03 12:45:22;;;;;;;3.28;0.98;;;28.30;56.40;;;;;;5134586;27;20387;-86
2022/09/03 12:48:14;;;;;;;3.67;1.15;;;28.10;43.50;;;;;;5141753;27;20038;-87
2022/09/03 12:51:02;;;;;;;3.72;1.30;;;28.50;57.90;;;;;;5138403;27;20037;-86
2022/09/03 12:53:50;;;;;;;3.85;1.00;;;28.30;44.30;;;;;;5119177;27;20046;-86
2022/09/03 12:56:37;;;;;;;2.60;0.90;;;28.30;42.80;;;;;;5134936;27;20034;-87
2022/09/03 12:59:21;;;;;;;6.35;0.95;;;;;;;;;;5118709;27;20050;-86
2022/09/03 13:02:23;;;;;;;4.82;1.05;;;28.40;58.00;;;;;;5150566;27;20066;-85
2022/09/03 13:05:18;;;;;;;1.85;1.10;;;28.40;42.70;;;;;;5118835;27;20038;-86
2022/09/03 13:08:06;;;;;;;5.28;1.20;;;28.60;42.70;;;;;;5148007;27;20099;-86
2022/09/03 13:10:57;;;;;;;1.92;0.85;;;28.70;42.50;;;;;;5142734;27;20148;-87
2022/09/03 13:14:09;;;;;;;9.85;1.25;;;28.70;42.70;;;;;;5151456;27;20034;-88
2022/09/03 13:17:22;;;;;;;2.15;1.00;;;29.00;52.60;;;;;;5133150;27;20073;-87
2022/09/03 13:20:38;;;;;;;3.67;1.10;;;28.60;41.80;;;;;;5118530;27;20042;-88
2022/09/03 13:23:28;;;;;;;2.33;0.95;;;28.20;50.30;;;;;;5117505;27;20038;-87
2022/09/03 13:26:38;;;;;;;5.35;0.90;;;28.50;42.70;;;;;;5127032;27;20046;-87
2022/09/03 13:29:48;;;;;;;2.33;1.00;;;29.00;55.20;;;;;;5132330;27;20054;-88
2022/09/03 13:32:39;;;;;;;3.90;0.98;;;28.40;42.20;;;;;;5147332;27;20080;-85
2022/09/03 13:35:28;;;;;;;3.00;0.88;;;28.30;42.40;;;;;;5118158;27;20070;-88
2022/09/03 13:38:31;;;;;;;4.65;1.00;;;28.00;52.00;;;;;;5134042;27;20035;-86
2022/09/03 13:41:37;;;;;;;2.58;0.90;;;28.20;42.40;;;;;;5140474;27;20090;-90
2022/09/03 13:44:51;;;;;;;3.88;1.10;;;28.20;42.20;;;;;;5120086;27;20052;-86
2022/09/03 13:51:36;;;;;;;2.60;1.15;;;28.40;42.90;;;;;;5133686;27;20551;-89
2022/09/03 13:54:33;;;;;;;3.35;0.93;;;27.90;57.40;;;;;;5133186;27;20456;-86
2022/09/03 13:57:28;;;;;;;5.35;1.08;;;28.50;41.90;;;;;;5118578;27;20038;-86
2022/09/03 14:00:33;;;;;;;8.10;1.33;;;28.50;42.00;;;;;;5133515;27;20535;-89
2022/09/03 14:03:45;;;;;;;2.72;0.90;;;27.90;53.40;;;;;;5133376;27;20418;-88
2022/09/03 14:06:45;;;;;;;3.95;1.10;;;27.90;52.50;;;;;;5132955;27;20082;-85
2022/09/03 14:09:39;;;;;;;5.55;1.15;;;27.90;53.20;;;;;;5144234;27;20033;-86
2022/09/03 14:12:45;;;;;;;2.53;0.82;;;28.40;42.40;;;;;;5147055;27;20493;-90
2022/09/03 14:15:45;;;;;;;2.58;0.90;;;28.40;42.10;;;;;;5133081;27;20061;-87
2022/09/03 14:18:50;;;;;;;4.97;1.10;;;28.30;54.10;;;;;;5135549;27;20045;-87
2022/09/03 14:21:45;;;;;;;2.65;1.00;;;28.30;41.90;;;;;;5148383;27;20050;-88
2022/09/03 14:24:53;;;;;;;4.68;1.13;;;28.10;54.70;;;;;;5146107;27;20091;-87
2022/09/03 14:27:37;;;;;;;3.97;1.00;;;;;;;;;;5117242;28;20080;-87
2022/09/03 14:31:00;;;;;;;4.28;0.98;;;27.90;55.10;;;;;;5117482;27;20058;-88
2022/09/03 14:34:03;;;;;;;6.60;1.23;;;28.00;44.00;;;;;;5044038;28;20480;-88
2022/09/03 14:36:59;;;;;;;2.08;0.90;;;28.20;43.10;;;;;;5035728;28;20047;-88
2022/09/03 14:39:55;;;;;;;3.40;1.00;;;28.00;53.60;;;;;;5145843;27;20034;-86
2022/09/03 14:43:05;;;;;;;3.80;1.00;;;28.70;55.10;;;;;;5133188;27;20088;-88
2022/09/03 14:45:55;;;;;;;2.78;0.98;;;28.70;52.60;;;;;;5121538;27;20061;-86
2022/09/03 14:49:20;;;;;;;2.50;0.95;;;28.10;42.90;;;;;;5121263;27;20080;-86
2022/09/03 14:52:42;;;;;;;4.75;1.17;;;27.50;53.00;;;;;;5121091;27;20054;-87
2022/09/03 14:55:49;;;;;;;2.08;1.00;;;28.40;55.10;;;;;;5132746;27;20041;-87
2022/09/03 14:58:47;;;;;;;5.05;0.93;;;27.70;48.10;;;;;;5148554;27;20135;-86
2022/09/03 15:01:33;;;;;;;4.22;1.10;;;27.70;43.20;;;;;;5136292;27;20034;-86
2022/09/03 15:04:18;;;;;;;6.28;1.20;;;;;;;;;;5136839;27;20080;-85
2022/09/03 15:07:08;;;;;;;4.03;1.13;;;27.80;58.70;;;;;;5136487;27;20074;-86
2022/09/03 15:10:09;;;;;;;2.65;1.13;;;27.50;44.00;;;;;;5137024;27;20061;-86
2022/09/03 15:13:07;;;;;;;10.90;1.38;;;27.50;44.20;;;;;;5136850;27;20160;-86
2022/09/03 15:15:52;;;;;;;4.38;1.00;;;;;;;;;;5136215;27;20048;-87
2022/09/03 15:18:45;;;;;;;2.05;1.00;;;27.40;43.90;;;;;;5136148;27;20403;-87
2022/09/03 15:21:30;;;;;;;;;;;27.40;44.50;;;;;;5136747;27;20046;-87
2022/09/03 15:24:41;;;;;;;2.47;0.93;;;27.60;54.00;;;;;;5135369;27;19914;-87
2022/09/03 15:27:44;;;;;;;3.90;1.13;;;26.80;54.30;;;;;;5136332;27;20489;-88
2022/09/03 15:30:41;;;;;;;4.38;1.10;;;27.00;44.50;;;;;;5136173;27;20042;-91
2022/09/03 15:33:41;;;;;;;4.68;1.70;;;27.30;57.20;;;;;;5136201;27;20391;-87
2022/09/03 15:36:39;;;;;;;4.35;1.80;;;26.50;56.70;;;;;;5136354;27;20042;-87
2022/09/03 15:39:33;;;;;;;5.35;1.20;;;26.70;44.70;;;;;;5136236;27;20111;-86